Parshad — EPCA7 — position and weather

sailwx.info

Track history (hours):
 
Tides and Currents Weather Stations Pressure Air Temp Water Temp Dewpoint Dewpoint Depression Visibility Wind Speed Wind Dir Waves Ship Positions

Parshad

Last reported at 2018-May-03 20:05 UTC. Time now 2018-May-20 17:46 UTC.
Position N 24°43' E 061°41'.
Warning: this ship's position is 16 days out of date.

Length 190 m; draft 9.5 m.

Type: Cargo ship. MMSI: 422040200.

Date/timePositionNaut miles runAvg speedWind from/ knotsBaromVisibWave heightAir tempDewpointWater temp
2018-May-03 20:05N 24°43' E 061°41'112.2
2018-May-03 20:00N 24°43' E 061°42'18611.9
2018-May-03 04:26N 23°45' E 064°55'612.0
2018-May-03 03:57N 23°43' E 065°01'812.0
2018-May-03 03:19N 23°41' E 065°09'1311.6
2018-May-03 02:11N 23°37' E 065°23'611.2
2018-May-03 01:37N 23°35' E 065°30'111.3
2018-May-03 01:30N 23°34' E 065°31'611.2
2018-May-03 01:00N 23°31' E 065°35'23111.9
2018-May-02 05:34N 20°16' E 067°48'111.5
2018-May-02 05:30N 20°15' E 067°48'611.7
2018-May-02 04:59N 20°10' E 067°52'611.8
2018-May-02 04:30N 20°05' E 067°55'611.9
2018-May-02 03:58N 19°60' E 067°59'812.1
2018-May-02 03:18N 19°53' E 068°03'412.1
2018-May-02 02:59N 19°50' E 068°06'612.1
2018-May-02 02:28N 19°44' E 068°09'612.0
2018-May-02 02:00N 19°40' E 068°12'612.0
2018-May-02 01:31N 19°35' E 068°16'612.0
2018-May-02 01:00N 19°29' E 068°19'612.4
2018-May-02 00:30N 19°24' E 068°23'612.5
2018-May-02 00:00N 19°19' E 068°26'612.4
2018-May-01 23:30N 19°14' E 068°30'612.2
2018-May-01 22:59N 19°09' E 068°34'712.0
2018-May-01 22:23N 19°03' E 068°38'3211.8
2018-May-01 19:40N 18°36' E 068°56'211.9
2018-May-01 19:30N 18°34' E 068°57'612.3
2018-May-01 19:00N 18°29' E 069°01'612.3
2018-May-01 18:29N 18°23' E 069°04'812.2
2018-May-01 17:47N 18°16' E 069°09'412.2
2018-May-01 17:30N 18°13' E 069°11'912.3
2018-May-01 16:48N 18°06' E 069°16'6612.3
2018-May-01 11:28N 17°16' E 070°01'3912.3
2018-May-01 08:19N 16°47' E 070°27'512.6
2018-May-01 07:58N 16°43' E 070°31'612.6
2018-May-01 07:30N 16°39' E 070°35'  
Track history (hours):
 
Tides and Currents Weather Stations Pressure Air Temp Water Temp Dewpoint Dewpoint Depression Visibility Wind Speed Wind Dir Waves Ship Positions

Parshad

Last reported at 2018-May-03 20:05 UTC. Time now 2018-May-20 17:46 UTC.
Position N 24°43' E 061°41'.
Warning: this ship's position is 16 days out of date.

Length 190 m; draft 9.5 m.

Type: Cargo ship. MMSI: 422040200.

Date/timePositionNaut miles runAvg speedWind from/ knotsBaromVisibWave heightAir tempDewpointWater temp
2018-May-03 20:05N 24°43' E 061°41'112.2
2018-May-03 20:00N 24°43' E 061°42'18611.9
2018-May-03 04:26N 23°45' E 064°55'612.0
2018-May-03 03:57N 23°43' E 065°01'812.0
2018-May-03 03:19N 23°41' E 065°09'1311.6
2018-May-03 02:11N 23°37' E 065°23'611.2
2018-May-03 01:37N 23°35' E 065°30'111.3
2018-May-03 01:30N 23°34' E 065°31'611.2
2018-May-03 01:00N 23°31' E 065°35'23111.9
2018-May-02 05:34N 20°16' E 067°48'111.5
2018-May-02 05:30N 20°15' E 067°48'611.7
2018-May-02 04:59N 20°10' E 067°52'611.8
2018-May-02 04:30N 20°05' E 067°55'611.9
2018-May-02 03:58N 19°60' E 067°59'812.1
2018-May-02 03:18N 19°53' E 068°03'412.1
2018-May-02 02:59N 19°50' E 068°06'612.1
2018-May-02 02:28N 19°44' E 068°09'612.0
2018-May-02 02:00N 19°40' E 068°12'612.0
2018-May-02 01:31N 19°35' E 068°16'612.0
2018-May-02 01:00N 19°29' E 068°19'612.4
2018-May-02 00:30N 19°24' E 068°23'612.5
2018-May-02 00:00N 19°19' E 068°26'612.4
2018-May-01 23:30N 19°14' E 068°30'612.2
2018-May-01 22:59N 19°09' E 068°34'712.0
2018-May-01 22:23N 19°03' E 068°38'3211.8
2018-May-01 19:40N 18°36' E 068°56'211.9
2018-May-01 19:30N 18°34' E 068°57'612.3
2018-May-01 19:00N 18°29' E 069°01'612.3
2018-May-01 18:29N 18°23' E 069°04'812.2
2018-May-01 17:47N 18°16' E 069°09'412.2
2018-May-01 17:30N 18°13' E 069°11'912.3
2018-May-01 16:48N 18°06' E 069°16'6612.3
2018-May-01 11:28N 17°16' E 070°01'3912.3
2018-May-01 08:19N 16°47' E 070°27'512.6
2018-May-01 07:58N 16°43' E 070°31'612.6
2018-May-01 07:30N 16°39' E 070°35'  

Dump ship's entire track history